Time;durP1;ratioP1;P1;durP2;ratioP2;P2;SDS_P1;SDS_P2;PMS_P1;PMS_P2;Temp;Humidity;BMP_temperature;BMP_pressure;BME280_temperature;BME280_humidity;BME280_pressure;Samples;Min_cycle;Max_cycle;Signal;HPM_P1;HPM_P2
2022/10/16 00:01:51;;;;;;;6.03;1.73;;;;;;;14.84;51.34;101005.47;7390610;19;20874;-58
2022/10/16 00:04:17;;;;;;;5.28;2.03;;;;;;;14.72;51.62;101009.16;7388279;19;20301;-58
2022/10/16 00:06:42;;;;;;;6.25;1.80;;;;;;;14.66;51.52;100999.63;7389852;19;19994;-58
2022/10/16 00:09:08;;;;;;;16.02;2.35;;;;;;;14.63;51.56;101003.91;7386779;19;20062;-58
2022/10/16 00:11:38;;;;;;;6.22;1.73;;;;;;;14.68;51.38;101008.31;7387980;19;20002;-58
2022/10/16 00:14:08;;;;;;;4.35;1.63;;;;;;;14.70;51.26;101005.19;7388839;19;20031;-58
2022/10/16 00:16:34;;;;;;;5.85;1.70;;;;;;;14.80;50.95;101010.91;7390194;19;20002;-58
2022/10/16 00:19:00;;;;;;;4.15;1.73;;;;;;;14.67;51.00;101020.44;7389308;19;20003;-57
2022/10/16 00:21:27;;;;;;;7.38;1.60;;;;;;;14.72;51.18;101020.16;7390283;19;20332;-58
2022/10/16 00:24:01;;;;;;;5.60;1.60;;;;;;;14.72;50.79;101020.16;7389183;19;20010;-58
2022/10/16 00:26:29;;;;;;;3.97;1.77;;;;;;;14.73;50.85;101026.44;7389613;19;20006;-59
2022/10/16 00:28:55;;;;;;;3.55;1.40;;;;;;;14.76;50.82;101029.28;7387260;19;20005;-58
2022/10/16 00:31:22;;;;;;;3.47;1.35;;;;;;;14.68;51.02;101023.97;7390619;19;20081;-58
2022/10/16 00:33:49;;;;;;;3.70;1.42;;;;;;;14.63;51.16;101028.63;7388158;19;20002;-58
2022/10/16 00:36:17;;;;;;;5.65;1.63;;;;;;;14.62;51.18;101021.53;7393765;19;19994;-58
2022/10/16 00:38:43;;;;;;;3.70;1.48;;;;;;;14.66;50.89;101024.34;7395811;19;20036;-58
2022/10/16 00:41:13;;;;;;;6.30;1.90;;;;;;;14.63;51.05;101039.63;7395021;19;19994;-58
2022/10/16 00:43:45;;;;;;;6.07;1.75;;;;;;;14.47;51.45;101036.16;7394884;19;20058;-58
2022/10/16 00:46:13;;;;;;;5.13;1.67;;;;;;;14.55;50.80;101037.09;7395380;19;19998;-61
2022/10/16 00:48:39;;;;;;;4.47;1.58;;;;;;;14.54;51.08;101041.78;7393497;19;20003;-58
2022/10/16 00:51:06;;;;;;;5.40;1.55;;;;;;;14.39;51.06;101046.19;7393839;19;20470;-58
2022/10/16 00:53:33;;;;;;;3.95;1.48;;;;;;;14.48;51.18;101042.44;7395246;19;20042;-58
2022/10/16 00:55:59;;;;;;;4.85;1.42;;;;;;;14.47;51.07;101035.38;7395863;19;20025;-58
2022/10/16 00:58:24;;;;;;;5.38;1.58;;;;;;;14.47;51.32;101038.13;7394331;19;20479;-58
2022/10/16 01:00:50;;;;;;;3.60;1.50;;;;;;;14.47;51.18;101041.66;7396608;19;20006;-58
2022/10/16 01:03:42;;;;;;;6.93;1.55;;;;;;;14.50;50.64;101040.94;7393756;19;20467;-58
2022/10/16 01:06:23;;;;;;;5.53;1.75;;;;;;;14.50;50.88;101040.13;7394790;19;19991;-58
2022/10/16 01:09:06;;;;;;;8.07;1.70;;;;;;;14.42;51.11;101033.69;7394649;19;20003;-58
2022/10/16 01:11:48;;;;;;;7.30;1.83;;;;;;;14.38;50.93;101036.38;7395355;19;20400;-58
2022/10/16 01:14:29;;;;;;;4.93;1.90;;;;;;;14.39;50.85;101034.41;7394112;19;20003;-58
2022/10/16 01:17:11;;;;;;;5.47;1.52;;;;;;;14.35;50.93;101034.34;7393362;19;20022;-58
2022/10/16 01:19:58;;;;;;;4.43;1.75;;;;;;;14.40;50.80;101034.06;7392335;19;20450;-58
2022/10/16 01:22:37;;;;;;;5.20;1.70;;;;;;;14.27;51.08;101035.38;7395088;19;20338;-58
2022/10/16 01:25:08;;;;;;;5.43;1.73;;;;;;;14.25;51.34;101037.69;7392609;19;20500;-58
2022/10/16 01:27:39;;;;;;;6.18;1.77;;;;;;;14.25;51.12;101037.69;7395181;19;20003;-58
2022/10/16 01:30:29;;;;;;;5.00;1.70;;;;;;;14.25;50.98;101043.97;7393311;19;20005;-58
2022/10/16 01:33:21;;;;;;;4.95;1.80;;;;;;;14.29;50.92;101044.03;7394638;19;20066;-58
2022/10/16 01:35:53;;;;;;;6.60;1.77;;;;;;;14.22;51.17;101035.66;7394226;19;20009;-58
2022/10/16 01:38:33;;;;;;;4.43;1.77;;;;;;;14.25;51.04;101043.97;7393825;19;19999;-59
2022/10/16 01:41:04;;;;;;;6.57;1.77;;;;;;;14.14;51.42;101044.88;7394468;19;20002;-59
2022/10/16 01:43:43;;;;;;;4.97;1.80;;;;;;;14.16;50.97;101042.56;7394198;19;20003;-58
2022/10/16 01:46:10;;;;;;;4.50;1.73;;;;;;;14.06;51.31;101028.28;7394729;19;20002;-58
2022/10/16 01:48:36;;;;;;;6.60;1.70;;;;;;;14.16;51.35;101043.38;7391897;19;19998;-58
2022/10/16 01:51:10;;;;;;;5.20;1.65;;;;;;;14.21;51.22;101036.78;7392091;19;20329;-59
2022/10/16 01:53:37;;;;;;;4.53;2.10;;;;;;;14.07;51.40;101045.53;7393107;19;20363;-58
2022/10/16 01:56:07;;;;;;;5.57;1.70;;;;;;;14.09;51.20;101039.69;7391619;19;20467;-58
2022/10/16 01:58:37;;;;;;;6.68;1.88;;;;;;;14.14;51.53;101040.19;7393084;19;20343;-58
2022/10/16 02:01:07;;;;;;;4.57;1.70;;;;;;;14.10;51.44;101044.03;7394034;19;19999;-58
2022/10/16 02:03:36;;;;;;;5.18;1.90;;;;;;;14.11;51.40;101029.94;7391490;19;20003;-58
2022/10/16 02:06:02;;;;;;;3.75;1.60;;;;;;;13.79;51.91;101027.25;7394200;19;20026;-58
2022/10/16 02:08:30;;;;;;;5.57;1.92;;;;;;;13.90;51.83;101035.75;7393608;19;20514;-58
2022/10/16 02:10:57;;;;;;;7.53;2.03;;;;;;;14.05;51.25;101032.16;7393440;19;19995;-58
2022/10/16 02:13:31;;;;;;;4.93;1.60;;;;;;;14.11;51.15;101032.69;7393137;19;19998;-58
2022/10/16 02:16:03;;;;;;;6.40;1.73;;;;;;;14.03;51.60;101039.19;7391383;19;20013;-58
2022/10/16 02:18:30;;;;;;;6.07;1.48;;;;;;;14.08;51.44;101047.13;7392697;19;20035;-58
2022/10/16 02:21:01;;;;;;;5.60;1.95;;;;;;;14.11;51.21;101051.09;7392784;19;20013;-59
2022/10/16 02:23:37;;;;;;;6.97;1.80;;;;;;;14.12;51.34;101055.44;7392854;19;20010;-58
2022/10/16 02:26:07;;;;;;;6.20;2.20;;;;;;;14.17;51.09;101049.66;7392447;19;20066;-57
2022/10/16 02:28:54;;;;;;;5.82;1.67;;;;;;;14.14;50.97;101047.63;7392163;19;20006;-58
2022/10/16 02:31:27;;;;;;;5.35;1.65;;;;;;;14.02;51.32;101048.56;7392214;19;20014;-58
2022/10/16 02:33:56;;;;;;;7.00;1.75;;;;;;;13.88;51.60;101049.06;7391748;19;20339;-59
2022/10/16 02:36:22;;;;;;;10.15;2.00;;;;;;;14.02;51.48;101048.56;7392835;19;20006;-58
2022/10/16 02:38:48;;;;;;;8.00;1.90;;;;;;;14.13;51.21;101046.03;7390280;19;20082;-58
2022/10/16 02:41:14;;;;;;;5.05;2.10;;;;;;;14.02;51.29;101043.06;7392088;19;19990;-58
2022/10/16 02:43:39;;;;;;;5.07;1.70;;;;;;;14.08;51.26;101036.16;7392133;19;20100;-58
2022/10/16 02:46:05;;;;;;;7.00;1.73;;;;;;;13.81;51.75;101038.69;7391959;19;20091;-58
2022/10/16 02:48:30;;;;;;;3.75;1.60;;;;;;;13.93;51.60;101029.56;7389721;19;20036;-58
2022/10/16 02:50:56;;;;;;;7.90;1.98;;;;;;;14.03;51.40;101033.69;7389390;19;20479;-58
2022/10/16 02:53:22;;;;;;;4.43;1.85;;;;;;;14.05;51.33;101045.88;7392330;19;20010;-60
2022/10/16 02:55:48;;;;;;;9.52;2.17;;;;;;;13.96;51.37;101039.81;7392627;19;20007;-58
2022/10/16 02:58:13;;;;;;;3.40;1.60;;;;;;;14.01;51.11;101042.28;7390227;19;20018;-58
2022/10/16 03:00:39;;;;;;;4.38;1.98;;;;;;;13.97;51.52;101041.41;7390650;19;19987;-58
2022/10/16 03:03:04;;;;;;;5.88;2.05;;;;;;;14.07;51.00;101045.53;7391743;19;19998;-58
2022/10/16 03:05:30;;;;;;;5.82;1.90;;;;;;;14.12;51.00;101042.50;7388347;19;20026;-58
2022/10/16 03:07:55;;;;;;;6.75;2.15;;;;;;;14.14;51.02;101044.88;7391778;19;20340;-58
2022/10/16 03:10:21;;;;;;;5.00;1.80;;;;;;;14.16;50.96;101042.56;7391204;19;20016;-58
2022/10/16 03:12:46;;;;;;;9.52;2.25;;;;;;;14.13;50.82;101055.09;7390234;19;20393;-58
2022/10/16 03:15:12;;;;;;;7.25;2.08;;;;;;;14.17;50.88;101046.91;7388121;19;19991;-58
2022/10/16 03:17:37;;;;;;;5.80;2.20;;;;;;;14.05;51.25;101051.38;7390869;19;20066;-58
2022/10/16 03:20:03;;;;;;;5.13;1.98;;;;;;;14.10;51.27;101049.53;7388937;19;20070;-58
2022/10/16 03:22:29;;;;;;;8.32;1.65;;;;;;;14.07;51.36;101051.81;7391001;19;19995;-58
2022/10/16 03:24:54;;;;;;;10.68;2.50;;;;;;;14.06;51.33;101050.25;7389616;19;20022;-57
2022/10/16 03:27:20;;;;;;;5.47;2.00;;;;;;;14.00;51.22;101048.91;7390585;19;19994;-58
2022/10/16 03:29:46;;;;;;;5.50;1.85;;;;;;;13.95;51.65;101049.19;7388414;19;20006;-58
2022/10/16 03:32:11;;;;;;;8.50;2.20;;;;;;;13.93;51.71;101061.69;7390773;19;20054;-58
2022/10/16 03:34:37;;;;;;;8.85;2.58;;;;;;;13.88;51.79;101060.03;7389199;19;20169;-58
2022/10/16 03:37:02;;;;;;;7.90;2.08;;;;;;;13.86;51.87;101065.06;7390541;19;20050;-58
2022/10/16 03:39:28;;;;;;;5.82;2.08;;;;;;;13.91;51.67;101059.31;7389934;19;20023;-58
2022/10/16 03:41:53;;;;;;;7.85;1.80;;;;;;;13.94;51.48;101058.56;7389610;19;19991;-57
2022/10/16 03:44:19;;;;;;;12.93;1.90;;;;;;;13.78;52.22;101064.09;7389389;19;20416;-58
2022/10/16 03:46:44;;;;;;;6.88;2.22;;;;;;;13.86;51.75;101068.63;7390387;19;19999;-58
2022/10/16 03:49:10;;;;;;;6.13;2.50;;;;;;;13.88;51.75;101065.50;7390245;19;20018;-57
2022/10/16 03:51:35;;;;;;;6.75;2.42;;;;;;;13.92;51.96;101060.09;7387382;19;20466;-57
2022/10/16 03:54:01;;;;;;;9.20;2.88;;;;;;;13.89;51.98;101061.59;7388887;19;20017;-57
2022/10/16 03:56:26;;;;;;;8.32;2.30;;;;;;;13.96;51.83;101066.44;7391503;19;20005;-57
2022/10/16 03:58:52;;;;;;;6.75;2.65;;;;;;;13.97;51.96;101062.56;7387847;19;20014;-58
2022/10/16 04:01:17;;;;;;;8.13;2.85;;;;;;;13.95;51.75;101071.16;7389887;19;20019;-58
2022/10/16 04:03:43;;;;;;;8.57;2.92;;;;;;;13.97;52.00;101076.28;7389213;19;20006;-58
2022/10/16 04:06:09;;;;;;;9.27;3.15;;;;;;;13.89;51.91;101075.31;7390052;19;20009;-58
2022/10/16 04:08:36;;;;;;;6.65;2.72;;;;;;;13.85;52.32;101074.47;7388625;19;20011;-58
2022/10/16 04:11:02;;;;;;;7.97;3.22;;;;;;;13.90;52.18;101082.41;7393142;19;20359;-58
2022/10/16 04:13:28;;;;;;;8.75;3.20;;;;;;;13.87;52.38;101091.34;7394980;19;20019;-58
2022/10/16 04:15:54;;;;;;;9.48;3.05;;;;;;;13.86;52.22;101092.50;7397409;19;19999;-58
2022/10/16 04:18:19;;;;;;;8.70;3.42;;;;;;;13.91;52.18;101097.72;7396933;19;20002;-58
2022/10/16 04:20:45;;;;;;;8.77;3.55;;;;;;;13.81;52.43;101107.28;7395417;19;20078;-58
2022/10/16 04:23:10;;;;;;;10.65;3.53;;;;;;;13.92;52.55;101098.50;7396467;19;19998;-58
2022/10/16 04:25:36;;;;;;;9.02;3.78;;;;;;;13.99;52.20;101093.97;7396404;19;20003;-58
2022/10/16 04:28:02;;;;;;;10.75;4.40;;;;;;;13.77;52.91;101091.88;7396528;19;20069;-58
2022/10/16 04:30:27;;;;;;;9.30;4.10;;;;;;;13.86;52.75;101079.59;7396688;19;20070;-58
2022/10/16 04:32:53;;;;;;;12.60;4.63;;;;;;;13.91;52.61;101081.28;7396428;19;19995;-58
2022/10/16 04:35:20;;;;;;;9.77;4.63;;;;;;;13.94;52.63;101079.75;7393590;19;20007;-58
2022/10/16 04:37:46;;;;;;;11.38;4.93;;;;;;;13.91;52.49;101078.53;7394568;19;20011;-58
2022/10/16 04:40:13;;;;;;;12.80;5.32;;;;;;;13.89;52.84;101072.56;7396904;19;20000;-58
2022/10/16 04:42:38;;;;;;;12.13;5.30;;;;;;;13.88;52.89;101077.28;7395953;19;20363;-58
2022/10/16 04:45:05;;;;;;;14.23;5.40;;;;;;;13.83;53.18;101085.00;7394461;19;20006;-58
2022/10/16 04:47:31;;;;;;;13.82;5.43;;;;;;;13.85;53.42;101088.19;7396930;19;20049;-58
2022/10/16 04:49:56;;;;;;;10.55;5.30;;;;;;;13.84;53.24;101103.03;7395584;19;20007;-58
2022/10/16 04:52:24;;;;;;;12.80;6.05;;;;;;;13.80;53.36;101094.69;7393300;19;19999;-58
2022/10/16 04:54:50;;;;;;;10.25;5.47;;;;;;;13.88;53.33;101095.69;7394310;19;20014;-58
2022/10/16 04:57:16;;;;;;;12.20;5.80;;;;;;;13.98;53.00;101091.59;7396765;19;19991;-58
2022/10/16 04:59:42;;;;;;;13.63;5.85;;;;;;;13.95;53.30;101095.84;7393254;19;19998;-57
2022/10/16 05:02:07;;;;;;;13.80;5.80;;;;;;;13.87;53.59;101094.09;7394739;19;20018;-58
2022/10/16 05:04:33;;;;;;;12.82;5.88;;;;;;;13.92;53.55;101093.81;7394405;19;20003;-58
2022/10/16 05:06:58;;;;;;;13.18;5.93;;;;;;;14.03;53.10;101099.56;7396367;19;20006;-58
2022/10/16 05:09:24;;;;;;;11.88;5.90;;;;;;;14.02;53.22;101114.44;7394996;19;19991;-58
2022/10/16 05:11:49;;;;;;;11.93;5.70;;;;;;;14.07;53.20;101109.44;7396371;19;20340;-58
2022/10/16 05:14:15;;;;;;;16.02;6.60;;;;;;;14.10;53.16;101112.66;7392014;19;20452;-58
2022/10/16 05:16:41;;;;;;;14.25;6.72;;;;;;;14.02;53.46;101115.22;7395211;19;20003;-58
2022/10/16 05:19:06;;;;;;;14.32;6.57;;;;;;;14.10;53.23;101115.41;7393184;19;20305;-58
2022/10/16 05:21:32;;;;;;;18.27;6.63;;;;;;;14.07;53.18;101112.19;7395503;19;20356;-58
2022/10/16 05:23:57;;;;;;;13.07;6.50;;;;;;;14.10;53.47;101116.19;7394810;19;20399;-58
2022/10/16 05:26:23;;;;;;;13.65;6.90;;;;;;;14.03;53.60;101114.06;7394840;19;19999;-57
2022/10/16 05:28:49;;;;;;;14.80;6.70;;;;;;;14.06;53.48;101127.09;7394470;19;20007;-57
2022/10/16 05:31:15;;;;;;;14.00;7.20;;;;;;;14.08;53.75;101123.97;7395881;19;19998;-57
2022/10/16 05:33:40;;;;;;;13.70;6.38;;;;;;;14.09;53.78;101119.28;7391968;19;19999;-57
2022/10/16 05:36:08;;;;;;;17.42;7.43;;;;;;;14.12;53.61;101124.06;7394147;19;19998;-57
2022/10/16 05:38:37;;;;;;;15.30;7.57;;;;;;;13.98;53.89;101136.31;7392159;19;19999;-57
2022/10/16 05:41:04;;;;;;;15.23;6.68;;;;;;;13.98;54.15;101127.28;7395351;19;19995;-57
2022/10/16 05:43:31;;;;;;;14.75;7.00;;;;;;;13.85;54.41;101135.59;7393638;19;20040;-57
2022/10/16 05:46:06;;;;;;;15.95;7.50;;;;;;;14.02;54.41;101137.16;7394396;19;20011;-57
2022/10/16 05:48:32;;;;;;;13.52;7.55;;;;;;;13.89;54.47;101141.16;7391834;19;20018;-57
2022/10/16 05:51:03;;;;;;;15.32;7.20;;;;;;;14.02;54.16;101142.66;7393554;19;20028;-57
2022/10/16 05:53:31;;;;;;;14.30;7.47;;;;;;;14.01;54.37;101135.59;7391765;19;20034;-57
2022/10/16 05:55:57;;;;;;;13.85;7.65;;;;;;;14.09;54.00;101146.72;7393475;19;20006;-57
2022/10/16 05:58:24;;;;;;;13.43;7.10;;;;;;;14.12;53.84;101146.81;7393226;19;20002;-58
2022/10/16 06:00:54;;;;;;;14.70;7.50;;;;;;;14.10;54.31;101148.34;7393956;19;20007;-58
2022/10/16 06:03:19;;;;;;;13.93;7.22;;;;;;;14.03;54.20;101155.25;7392100;19;20483;-58
2022/10/16 06:05:45;;;;;;;15.90;6.75;;;;;;;14.11;54.07;101153.47;7394283;19;20023;-57
2022/10/16 06:08:10;;;;;;;17.25;7.90;;;;;;;14.16;53.96;101157.88;7391622;19;19999;-58
2022/10/16 06:10:36;;;;;;;12.50;7.30;;;;;;;14.19;54.09;101159.91;7392871;19;20002;-58
2022/10/16 06:13:01;;;;;;;14.35;7.50;;;;;;;14.22;53.76;101156.44;7393834;19;20002;-57
2022/10/16 06:15:27;;;;;;;13.43;6.90;;;;;;;14.19;53.79;101163.44;7391574;19;20471;-57
2022/10/16 06:17:52;;;;;;;13.38;7.47;;;;;;;14.17;54.12;101162.22;7393858;19;20007;-57
2022/10/16 06:20:18;;;;;;;15.02;7.35;;;;;;;14.25;53.77;101166.72;7391239;19;20431;-57
2022/10/16 06:22:43;;;;;;;15.68;7.03;;;;;;;14.29;53.89;101167.56;7393789;19;20002;-58
2022/10/16 06:25:09;;;;;;;13.30;7.20;;;;;;;14.22;53.92;101168.22;7390896;19;20002;-58
2022/10/16 06:27:34;;;;;;;15.93;7.10;;;;;;;14.13;54.26;101180.53;7391474;19;20011;-57
2022/10/16 06:30:00;;;;;;;16.08;7.68;;;;;;;14.23;54.22;101182.75;7390998;19;20032;-57
2022/10/16 06:32:27;;;;;;;18.52;7.13;;;;;;;14.16;54.17;101185.31;7392412;19;20485;-58
2022/10/16 06:34:52;;;;;;;14.10;7.30;;;;;;;14.17;54.16;101184.19;7387444;19;20013;-58
2022/10/16 06:37:18;;;;;;;14.70;7.20;;;;;;;14.15;54.60;101200.22;7392849;19;20475;-58
2022/10/16 06:39:43;;;;;;;14.43;7.30;;;;;;;14.16;54.47;101196.28;7391522;19;19998;-58
2022/10/16 06:42:09;;;;;;;14.55;7.25;;;;;;;14.11;54.65;101199.31;7390949;19;20466;-57
2022/10/16 06:44:34;;;;;;;15.18;7.25;;;;;;;14.00;54.94;101205.34;7391800;19;20324;-57
2022/10/16 06:47:00;;;;;;;11.95;7.13;;;;;;;14.16;54.35;101196.28;7391922;19;20013;-57
2022/10/16 06:49:25;;;;;;;15.88;7.05;;;;;;;14.24;53.99;101209.03;7392049;19;20074;-57
2022/10/16 06:51:51;;;;;;;16.50;7.13;;;;;;;14.22;54.09;101214.09;7390472;19;20358;-57
2022/10/16 06:54:17;;;;;;;13.93;6.68;;;;;;;14.25;54.30;101213.38;7391077;19;20010;-57
2022/10/16 06:56:43;;;;;;;15.50;6.78;;;;;;;14.23;54.13;101212.94;7391518;19;20470;-58
2022/10/16 06:59:09;;;;;;;12.63;6.75;;;;;;;14.22;54.25;101225.06;7390576;19;19994;-58
2022/10/16 07:01:34;;;;;;;15.77;7.75;;;;;;;14.22;53.98;101228.59;7389754;19;20061;-58
2022/10/16 07:04:01;;;;;;;12.73;6.82;;;;;;;14.17;54.61;101225.34;7390909;19;19999;-58
2022/10/16 07:06:27;;;;;;;14.70;6.90;;;;;;;14.24;54.25;101226.31;7391860;19;19991;-58
2022/10/16 07:08:52;;;;;;;15.88;7.03;;;;;;;14.29;53.96;101238.97;7389395;19;20051;-58
2022/10/16 07:11:21;;;;;;;14.63;6.65;;;;;;;14.21;54.29;101242.69;7391095;19;19994;-58
2022/10/16 07:13:48;;;;;;;12.18;6.18;;;;;;;14.15;54.50;101241.38;7391750;19;20007;-57
2022/10/16 07:16:17;;;;;;;13.60;6.22;;;;;;;14.15;54.46;101255.91;7390402;19;20328;-58
2022/10/16 07:18:45;;;;;;;13.27;6.28;;;;;;;14.28;54.22;101253.88;7390907;19;20016;-57
2022/10/16 07:21:17;;;;;;;13.70;6.35;;;;;;;14.30;54.43;101256.25;7391175;19;20003;-58
2022/10/16 07:23:43;;;;;;;12.10;6.22;;;;;;;14.17;54.60;101263.78;7389257;19;20032;-58
2022/10/16 07:26:09;;;;;;;12.07;6.00;;;;;;;14.28;54.46;101258.53;7390715;19;20018;-58
2022/10/16 07:28:35;;;;;;;14.27;6.28;;;;;;;14.19;54.67;101262.25;7390811;19;19994;-58
2022/10/16 07:31:07;;;;;;;12.88;6.05;;;;;;;14.32;54.51;101271.19;7391869;19;20011;-57
2022/10/16 07:33:34;;;;;;;15.40;6.00;;;;;;;14.42;54.14;101270.66;7391263;19;20006;-58
2022/10/16 07:36:00;;;;;;;12.27;6.03;;;;;;;14.40;54.38;101280.41;7390482;19;20012;-57
2022/10/16 07:38:26;;;;;;;12.88;6.25;;;;;;;14.52;54.28;101272.06;7389149;19;20326;-58
2022/10/16 07:41:03;;;;;;;10.45;5.28;;;;;;;14.42;54.29;101278.91;7388741;19;19998;-58
2022/10/16 07:43:29;;;;;;;11.45;5.75;;;;;;;14.60;53.76;101278.53;7394177;19;19999;-58
2022/10/16 07:45:55;;;;;;;12.52;5.72;;;;;;;14.48;54.35;101281.38;7392027;19;19999;-58
2022/10/16 07:48:22;;;;;;;9.77;5.15;;;;;;;14.55;54.10;101282.34;7397311;19;20018;-57
2022/10/16 07:50:48;;;;;;;9.57;4.97;;;;;;;14.53;54.24;101287.41;7398013;19;20071;-58
2022/10/16 07:53:14;;;;;;;10.25;4.85;;;;;;;14.61;54.08;101291.09;7397322;19;20475;-58
2022/10/16 07:55:40;;;;;;;12.13;5.13;;;;;;;14.71;53.61;101292.50;7397928;19;20002;-58
2022/10/16 07:58:06;;;;;;;12.15;5.10;;;;;;;14.87;53.54;101306.25;7395588;19;20474;-58
2022/10/16 08:00:33;;;;;;;9.23;4.80;;;;;;;14.87;53.51;101309.78;7396808;19;20019;-58
2022/10/16 08:03:01;;;;;;;9.98;4.63;;;;;;;14.92;53.24;101311.47;7397645;19;20006;-58
2022/10/16 08:05:31;;;;;;;8.60;4.35;;;;;;;14.85;53.68;101305.81;7395115;19;20461;-58
2022/10/16 08:07:57;;;;;;;10.48;4.50;;;;;;;14.85;53.81;101303.06;7394756;19;20006;-58
2022/10/16 08:10:25;;;;;;;11.15;4.32;;;;;;;14.84;53.42;101312.44;7397432;19;19995;-58
2022/10/16 08:12:51;;;;;;;11.35;4.40;;;;;;;14.96;53.39;101313.13;7395767;19;20002;-58
2022/10/16 08:15:17;;;;;;;8.88;4.28;;;;;;;14.98;53.08;101316.31;7394591;19;20324;-58
2022/10/16 08:17:42;;;;;;;8.65;4.38;;;;;;;14.97;53.20;101319.41;7396640;19;20070;-58
2022/10/16 08:20:09;;;;;;;12.35;4.10;;;;;;;15.02;53.02;101327.38;7397457;19;20002;-58
2022/10/16 08:22:35;;;;;;;6.47;3.53;;;;;;;14.99;53.17;101331.63;7396235;19;20002;-57
2022/10/16 08:25:00;;;;;;;9.50;3.67;;;;;;;15.07;52.86;101335.34;7394738;19;20447;-57
2022/10/16 08:27:31;;;;;;;7.63;3.95;;;;;;;15.27;52.36;101335.38;7396761;19;20003;-57
2022/10/16 08:29:57;;;;;;;9.43;3.40;;;;;;;15.02;53.04;101332.09;7395056;19;19998;-57
2022/10/16 08:32:22;;;;;;;9.57;4.03;;;;;;;15.13;52.59;101344.09;7394971;19;20006;-57
2022/10/16 08:34:48;;;;;;;6.53;3.72;;;;;;;15.14;52.38;101349.25;7393092;19;20343;-57
2022/10/16 08:37:13;;;;;;;10.10;3.28;;;;;;;15.03;52.83;101347.41;7397251;19;19995;-57
2022/10/16 08:39:39;;;;;;;9.77;3.58;;;;;;;15.17;52.56;101343.03;7395726;19;19999;-57
2022/10/16 08:42:54;;;;;;;11.65;3.25;;;;;;;15.18;52.54;101350.13;7394840;19;19998;-57
2022/10/16 08:45:59;;;;;;;8.88;3.75;;;;;;;15.23;52.03;101353.75;7392683;19;19994;-57
2022/10/16 08:48:46;;;;;;;8.70;3.20;;;;;;;15.14;52.41;101370.44;7392785;19;19999;-57
2022/10/16 08:51:26;;;;;;;8.55;2.70;;;;;;;15.30;52.16;101370.41;7396035;19;20003;-57
2022/10/16 08:53:55;;;;;;;7.93;3.10;;;;;;;15.28;52.13;101369.97;7394243;19;20022;-57
2022/10/16 08:56:28;;;;;;;6.72;2.92;;;;;;;15.38;51.93;101371.34;7394976;19;19998;-57
2022/10/16 08:58:54;;;;;;;7.33;2.83;;;;;;;15.46;51.87;101373.88;7394756;19;20029;-56
2022/10/16 09:01:25;;;;;;;7.15;2.88;;;;;;;15.43;51.71;101380.13;7393806;19;20006;-56
2022/10/16 09:03:59;;;;;;;8.48;2.78;;;;;;;15.48;51.43;101377.09;7395579;19;20029;-56
2022/10/16 09:06:50;;;;;;;8.32;2.20;;;;;;;15.39;51.63;101384.75;7396014;19;20003;-57
2022/10/16 09:09:27;;;;;;;6.50;2.35;;;;;;;15.61;51.06;101390.69;7394498;19;20003;-57
2022/10/16 09:11:53;;;;;;;11.23;2.80;;;;;;;15.79;50.76;101386.38;7395628;19;20371;-57
2022/10/16 09:14:30;;;;;;;7.45;2.17;;;;;;;15.81;50.46;101395.06;7393973;19;20031;-57
2022/10/16 09:17:06;;;;;;;9.68;2.70;;;;;;;15.83;50.48;101391.94;7395382;19;20002;-57
2022/10/16 09:19:41;;;;;;;8.10;1.90;;;;;;;16.08;50.05;101390.50;7394293;19;20104;-57
2022/10/16 09:22:16;;;;;;;11.05;2.50;;;;;;;16.37;49.60;101401.22;7394244;19;20014;-57
2022/10/16 09:24:42;;;;;;;8.23;2.10;;;;;;;16.27;49.65;101392.41;7391638;19;20006;-57
2022/10/16 09:27:13;;;;;;;6.32;1.85;;;;;;;16.32;49.84;101385.78;7395010;19;20327;-58
2022/10/16 09:29:40;;;;;;;12.00;2.78;;;;;;;16.33;49.52;101394.84;7394109;19;20069;-58
2022/10/16 09:32:19;;;;;;;10.13;2.17;;;;;;;16.35;49.07;101403.53;7394836;19;20007;-58
2022/10/16 09:34:56;;;;;;;8.10;2.00;;;;;;;16.40;49.46;101400.47;7392798;19;19999;-58
2022/10/16 09:37:23;;;;;;;7.00;2.13;;;;;;;16.31;49.43;101403.47;7394151;19;20002;-58
2022/10/16 09:39:52;;;;;;;10.70;2.25;;;;;;;16.20;49.64;101406.03;7392104;19;20006;-58
2022/10/16 09:42:27;;;;;;;8.82;1.98;;;;;;;16.31;49.43;101410.94;7393076;19;20526;-58
2022/10/16 09:44:53;;;;;;;7.13;1.58;;;;;;;16.33;49.21;101409.41;7393376;19;20010;-58
2022/10/16 09:47:30;;;;;;;7.10;1.70;;;;;;;16.38;48.95;101402.78;7393359;19;20023;-57
2022/10/16 09:50:02;;;;;;;5.47;1.80;;;;;;;16.27;49.03;101410.88;7393357;19;20347;-57
2022/10/16 09:52:31;;;;;;;5.20;1.95;;;;;;;16.38;48.80;101411.06;7391760;19;19997;-58
2022/10/16 09:55:12;;;;;;;6.95;1.77;;;;;;;16.33;48.93;101416.88;7390573;19;20027;-57
2022/10/16 09:57:48;;;;;;;6.85;1.70;;;;;;;16.23;48.99;101418.28;7393464;19;20467;-58
2022/10/16 10:00:17;;;;;;;6.90;1.60;;;;;;;16.31;49.17;101410.94;7392577;19;19998;-58
2022/10/16 10:02:43;;;;;;;8.05;1.50;;;;;;;16.27;48.86;101427.41;7393843;19;19994;-57
2022/10/16 10:05:21;;;;;;;5.53;1.40;;;;;;;16.37;48.83;101424.06;7392713;19;20494;-58
2022/10/16 10:07:58;;;;;;;7.70;1.80;;;;;;;16.43;48.64;101430.84;7392191;19;20374;-59
2022/10/16 10:10:31;;;;;;;8.57;1.77;;;;;;;16.45;48.45;101435.97;7393007;19;20003;-59
2022/10/16 10:12:57;;;;;;;6.53;1.48;;;;;;;16.44;48.71;101439.91;7393055;19;20435;-58
2022/10/16 10:15:26;;;;;;;7.50;1.98;;;;;;;16.44;48.77;101428.88;7391953;19;20119;-59
2022/10/16 10:17:54;;;;;;;7.28;1.67;;;;;;;16.51;48.42;101440.06;7391204;19;19995;-58
2022/10/16 10:20:32;;;;;;;4.22;1.52;;;;;;;16.54;48.44;101455.88;7390248;19;19998;-59
2022/10/16 10:22:58;;;;;;;5.82;1.70;;;;;;;16.48;48.54;101453.78;7393894;19;20009;-58
2022/10/16 10:25:32;;;;;;;5.07;1.50;;;;;;;16.83;47.70;101453.59;7391291;19;20002;-59
2022/10/16 10:28:13;;;;;;;8.00;1.73;;;;;;;16.89;47.63;101456.84;7392469;19;20002;-59
2022/10/16 10:31:03;;;;;;;8.35;1.77;;;;;;;16.98;47.34;101458.16;7392525;19;20023;-58
2022/10/16 10:33:45;;;;;;;8.82;1.63;;;;;;;17.19;46.93;101465.97;7390589;19;19998;-59
2022/10/16 10:36:21;;;;;;;5.63;1.30;;;;;;;17.17;46.74;101462.81;7392303;19;20027;-59
2022/10/16 10:38:56;;;;;;;5.43;1.50;;;;;;;16.95;46.52;101469.97;7391991;19;19998;-59
2022/10/16 10:41:43;;;;;;;7.07;1.40;;;;;;;17.01;47.02;101476.72;7390750;19;19994;-59
2022/10/16 10:44:23;;;;;;;6.22;1.30;;;;;;;17.04;46.28;101464.19;7391805;19;19999;-58
2022/10/16 10:47:11;;;;;;;6.07;1.20;;;;;;;17.09;46.39;101480.41;7390593;19;19986;-59
2022/10/16 10:50:06;;;;;;;5.63;1.30;;;;;;;17.19;45.92;101467.94;7391447;19;20006;-59
2022/10/16 10:52:33;;;;;;;4.85;1.10;;;;;;;17.31;45.71;101461.47;7389022;19;20020;-59
2022/10/16 10:55:18;;;;;;;5.68;1.73;;;;;;;17.19;45.28;101470.72;7390642;19;20042;-59
2022/10/16 10:58:13;;;;;;;11.50;1.98;;;;;;;17.21;44.68;101469.16;7392357;19;20003;-59
2022/10/16 11:00:42;;;;;;;3.15;1.15;;;;;;;16.88;45.61;101480.84;7393132;19;20123;-59
2022/10/16 11:03:42;;;;;;;3.17;1.20;;;;;;;16.85;44.87;101476.06;7389707;19;20009;-58
2022/10/16 11:06:17;;;;;;;6.85;1.00;;;;;;;17.06;45.43;101472.09;7391783;19;20007;-58
2022/10/16 11:08:53;;;;;;;6.10;1.38;;;;;;;17.11;45.20;101478.06;7390642;19;20006;-59
2022/10/16 11:11:49;;;;;;;6.10;1.23;;;;;;;17.18;45.10;101474.63;7391524;19;20002;-57
2022/10/16 11:14:32;;;;;;;6.10;1.10;;;;;;;17.10;45.15;101487.53;7387689;19;20006;-57
2022/10/16 11:17:27;;;;;;;6.18;1.30;;;;;;;17.07;44.69;101487.44;7392227;19;19998;-57
2022/10/16 11:19:59;;;;;;;5.60;1.20;;;;;;;17.19;45.00;101490.81;7390707;19;20014;-57
2022/10/16 11:22:42;;;;;;;4.40;1.38;;;;;;;17.16;45.07;101490.75;7391273;19;20005;-57
2022/10/16 11:25:18;;;;;;;5.78;1.10;;;;;;;17.24;44.81;101497.97;7389587;19;20010;-57
2022/10/16 11:28:11;;;;;;;5.13;1.15;;;;;;;17.23;44.48;101496.38;7391055;19;20013;-57
2022/10/16 11:30:50;;;;;;;6.15;1.55;;;;;;;17.28;44.32;101507.13;7391629;19;19999;-57
2022/10/16 11:33:18;;;;;;;4.65;1.10;;;;;;;17.52;44.22;101496.81;7390770;19;20007;-57
2022/10/16 11:35:51;;;;;;;5.22;1.10;;;;;;;17.58;43.51;101495.34;7390773;19;20036;-57